sensor_id;sensor_type;location;lat;lon;timestamp;P1;durP1;ratioP1;P2;durP2;ratioP2
35877;SDS011;21982;49.804;24.072;2022-08-21T00:00:20;11.38;;;4.32;;
35877;SDS011;21982;49.804;24.072;2022-08-21T00:02:49;8.43;;;4.32;;
35877;SDS011;21982;49.804;24.072;2022-08-21T00:05:23;10.27;;;4.63;;
35877;SDS011;21982;49.804;24.072;2022-08-21T00:07:50;10.43;;;4.50;;
35877;SDS011;21982;49.804;24.072;2022-08-21T00:10:15;9.98;;;5.15;;
35877;SDS011;21982;49.804;24.072;2022-08-21T00:12:41;11.68;;;4.57;;
35877;SDS011;21982;49.804;24.072;2022-08-21T00:15:09;7.95;;;4.43;;
35877;SDS011;21982;49.804;24.072;2022-08-21T00:17:36;7.35;;;4.03;;
35877;SDS011;21982;49.804;24.072;2022-08-21T00:20:03;7.93;;;4.00;;
35877;SDS011;21982;49.804;24.072;2022-08-21T00:22:31;8.10;;;3.85;;
35877;SDS011;21982;49.804;24.072;2022-08-21T00:25:08;8.77;;;3.92;;
35877;SDS011;21982;49.804;24.072;2022-08-21T00:27:41;10.70;;;4.85;;
35877;SDS011;21982;49.804;24.072;2022-08-21T00:30:16;6.77;;;3.33;;
35877;SDS011;21982;49.804;24.072;2022-08-21T00:32:45;9.40;;;4.63;;
35877;SDS011;21982;49.804;24.072;2022-08-21T00:35:14;7.43;;;3.92;;
35877;SDS011;21982;49.804;24.072;2022-08-21T00:37:45;8.93;;;4.70;;
35877;SDS011;21982;49.804;24.072;2022-08-21T00:40:15;9.88;;;4.10;;
35877;SDS011;21982;49.804;24.072;2022-08-21T00:45:11;7.13;;;3.90;;
35877;SDS011;21982;49.804;24.072;2022-08-21T00:47:37;11.75;;;3.97;;
35877;SDS011;21982;49.804;24.072;2022-08-21T00:55:13;7.78;;;3.60;;
35877;SDS011;21982;49.804;24.072;2022-08-21T00:57:52;10.85;;;4.80;;
35877;SDS011;21982;49.804;24.072;2022-08-21T01:00:30;8.63;;;4.53;;
35877;SDS011;21982;49.804;24.072;2022-08-21T01:03:09;7.40;;;3.72;;
35877;SDS011;21982;49.804;24.072;2022-08-21T01:05:46;8.27;;;4.30;;
35877;SDS011;21982;49.804;24.072;2022-08-21T01:08:13;10.82;;;3.58;;
35877;SDS011;21982;49.804;24.072;2022-08-21T01:10:40;9.52;;;4.20;;
35877;SDS011;21982;49.804;24.072;2022-08-21T01:13:06;8.00;;;3.80;;
35877;SDS011;21982;49.804;24.072;2022-08-21T01:15:36;9.20;;;4.00;;
35877;SDS011;21982;49.804;24.072;2022-08-21T01:18:05;7.80;;;3.75;;
35877;SDS011;21982;49.804;24.072;2022-08-21T01:41:14;10.52;;;5.78;;
35877;SDS011;21982;49.804;24.072;2022-08-21T01:43:41;10.27;;;5.47;;
35877;SDS011;21982;49.804;24.072;2022-08-21T01:46:07;12.85;;;6.40;;
35877;SDS011;21982;49.804;24.072;2022-08-21T01:48:33;14.18;;;7.22;;
35877;SDS011;21982;49.804;24.072;2022-08-21T01:50:59;12.00;;;7.05;;
35877;SDS011;21982;49.804;24.072;2022-08-21T01:53:25;9.93;;;5.47;;
35877;SDS011;21982;49.804;24.072;2022-08-21T01:56:09;10.93;;;4.95;;
35877;SDS011;21982;49.804;24.072;2022-08-21T01:58:48;14.82;;;6.35;;
35877;SDS011;21982;49.804;24.072;2022-08-21T02:01:14;12.63;;;6.10;;
35877;SDS011;21982;49.804;24.072;2022-08-21T02:03:46;9.60;;;6.70;;
35877;SDS011;21982;49.804;24.072;2022-08-21T02:06:16;11.20;;;6.43;;
35877;SDS011;21982;49.804;24.072;2022-08-21T02:08:46;10.48;;;6.63;;
35877;SDS011;21982;49.804;24.072;2022-08-21T02:11:15;12.18;;;6.03;;
35877;SDS011;21982;49.804;24.072;2022-08-21T02:13:59;11.80;;;7.10;;
35877;SDS011;21982;49.804;24.072;2022-08-21T02:16:36;17.83;;;7.07;;
35877;SDS011;21982;49.804;24.072;2022-08-21T02:19:02;13.15;;;7.97;;
35877;SDS011;21982;49.804;24.072;2022-08-21T02:21:34;17.20;;;8.52;;
35877;SDS011;21982;49.804;24.072;2022-08-21T02:24:00;12.50;;;8.25;;
35877;SDS011;21982;49.804;24.072;2022-08-21T03:52:05;12.30;;;6.32;;
35877;SDS011;21982;49.804;24.072;2022-08-21T03:54:30;10.13;;;6.35;;
35877;SDS011;21982;49.804;24.072;2022-08-21T03:56:56;11.15;;;5.47;;
35877;SDS011;21982;49.804;24.072;2022-08-21T03:59:22;12.82;;;5.40;;
35877;SDS011;21982;49.804;24.072;2022-08-21T04:38:00;13.30;;;4.97;;
35877;SDS011;21982;49.804;24.072;2022-08-21T04:40:36;10.75;;;6.10;;
35877;SDS011;21982;49.804;24.072;2022-08-21T04:43:15;9.50;;;4.75;;
35877;SDS011;21982;49.804;24.072;2022-08-21T04:46:18;9.90;;;4.90;;
35877;SDS011;21982;49.804;24.072;2022-08-21T04:48:45;11.18;;;5.15;;
35877;SDS011;21982;49.804;24.072;2022-08-21T04:53:53;8.57;;;4.70;;
35877;SDS011;21982;49.804;24.072;2022-08-21T04:56:33;11.48;;;5.35;;
35877;SDS011;21982;49.804;24.072;2022-08-21T04:59:10;9.23;;;5.00;;
35877;SDS011;21982;49.804;24.072;2022-08-21T05:01:41;8.75;;;4.50;;
35877;SDS011;21982;49.804;24.072;2022-08-21T05:04:12;9.50;;;4.80;;
35877;SDS011;21982;49.804;24.072;2022-08-21T05:06:46;10.88;;;5.53;;
35877;SDS011;21982;49.804;24.072;2022-08-21T05:09:14;11.18;;;4.50;;
35877;SDS011;21982;49.804;24.072;2022-08-21T05:11:44;10.30;;;4.65;;
35877;SDS011;21982;49.804;24.072;2022-08-21T05:14:11;11.15;;;4.85;;
35877;SDS011;21982;49.804;24.072;2022-08-21T05:16:42;10.07;;;5.22;;
35877;SDS011;21982;49.804;24.072;2022-08-21T05:19:09;8.43;;;4.38;;
35877;SDS011;21982;49.804;24.072;2022-08-21T05:21:38;8.00;;;4.15;;
35877;SDS011;21982;49.804;24.072;2022-08-21T05:24:06;7.53;;;3.92;;
35877;SDS011;21982;49.804;24.072;2022-08-21T05:26:32;9.93;;;5.10;;
35877;SDS011;21982;49.804;24.072;2022-08-21T05:28:57;25.60;;;4.80;;
35877;SDS011;21982;49.804;24.072;2022-08-21T05:31:23;11.02;;;4.93;;
35877;SDS011;21982;49.804;24.072;2022-08-21T05:33:49;9.18;;;3.33;;
35877;SDS011;21982;49.804;24.072;2022-08-21T05:36:14;8.60;;;4.35;;
35877;SDS011;21982;49.804;24.072;2022-08-21T05:38:39;7.28;;;3.45;;
35877;SDS011;21982;49.804;24.072;2022-08-21T05:41:05;6.72;;;3.10;;
35877;SDS011;21982;49.804;24.072;2022-08-21T05:43:32;7.45;;;3.72;;
35877;SDS011;21982;49.804;24.072;2022-08-21T05:46:01;7.97;;;3.83;;
35877;SDS011;21982;49.804;24.072;2022-08-21T05:48:27;6.28;;;3.05;;
35877;SDS011;21982;49.804;24.072;2022-08-21T05:50:52;7.32;;;3.65;;
35877;SDS011;21982;49.804;24.072;2022-08-21T05:53:20;8.93;;;3.60;;
35877;SDS011;21982;49.804;24.072;2022-08-21T05:55:46;9.05;;;3.00;;
35877;SDS011;21982;49.804;24.072;2022-08-21T05:58:13;6.00;;;2.88;;
35877;SDS011;21982;49.804;24.072;2022-08-21T06:00:41;10.07;;;3.35;;
35877;SDS011;21982;49.804;24.072;2022-08-21T06:03:11;6.07;;;3.00;;
35877;SDS011;21982;49.804;24.072;2022-08-21T06:05:37;7.60;;;3.65;;
35877;SDS011;21982;49.804;24.072;2022-08-21T06:08:04;11.70;;;4.18;;
35877;SDS011;21982;49.804;24.072;2022-08-21T06:10:41;8.35;;;3.78;;
35877;SDS011;21982;49.804;24.072;2022-08-21T06:13:15;14.85;;;5.47;;
35877;SDS011;21982;49.804;24.072;2022-08-21T06:15:48;10.13;;;3.35;;
35877;SDS011;21982;49.804;24.072;2022-08-21T06:18:19;6.30;;;2.92;;
35877;SDS011;21982;49.804;24.072;2022-08-21T06:20:47;6.22;;;3.17;;
35877;SDS011;21982;49.804;24.072;2022-08-21T06:23:12;5.57;;;3.22;;
35877;SDS011;21982;49.804;24.072;2022-08-21T06:25:38;5.57;;;3.13;;
35877;SDS011;21982;49.804;24.072;2022-08-21T06:28:04;11.50;;;3.92;;
35877;SDS011;21982;49.804;24.072;2022-08-21T06:30:31;8.82;;;3.47;;
35877;SDS011;21982;49.804;24.072;2022-08-21T06:32:57;5.95;;;3.58;;
35877;SDS011;21982;49.804;24.072;2022-08-21T06:35:23;5.72;;;3.25;;
35877;SDS011;21982;49.804;24.072;2022-08-21T06:37:58;8.88;;;3.75;;
35877;SDS011;21982;49.804;24.072;2022-08-21T06:40:38;5.90;;;3.47;;
35877;SDS011;21982;49.804;24.072;2022-08-21T06:43:09;6.63;;;3.50;;
35877;SDS011;21982;49.804;24.072;2022-08-21T06:45:37;6.95;;;4.13;;
35877;SDS011;21982;49.804;24.072;2022-08-21T06:48:04;8.00;;;3.20;;
35877;SDS011;21982;49.804;24.072;2022-08-21T06:50:33;6.65;;;3.60;;
35877;SDS011;21982;49.804;24.072;2022-08-21T06:53:07;7.63;;;3.60;;
35877;SDS011;21982;49.804;24.072;2022-08-21T06:55:34;7.90;;;3.35;;
35877;SDS011;21982;49.804;24.072;2022-08-21T06:58:01;7.18;;;3.47;;
35877;SDS011;21982;49.804;24.072;2022-08-21T07:00:27;5.45;;;3.95;;
35877;SDS011;21982;49.804;24.072;2022-08-21T07:02:53;4.45;;;2.95;;
35877;SDS011;21982;49.804;24.072;2022-08-21T07:05:19;6.68;;;4.20;;
35877;SDS011;21982;49.804;24.072;2022-08-21T07:07:46;7.68;;;4.10;;
35877;SDS011;21982;49.804;24.072;2022-08-21T07:10:12;6.90;;;3.97;;
35877;SDS011;21982;49.804;24.072;2022-08-21T07:12:38;6.88;;;3.78;;
35877;SDS011;21982;49.804;24.072;2022-08-21T07:15:04;7.00;;;4.03;;
35877;SDS011;21982;49.804;24.072;2022-08-21T07:17:30;5.65;;;3.13;;
35877;SDS011;21982;49.804;24.072;2022-08-21T07:19:55;9.13;;;4.00;;
35877;SDS011;21982;49.804;24.072;2022-08-21T07:22:22;6.95;;;3.58;;
35877;SDS011;21982;49.804;24.072;2022-08-21T07:24:48;5.43;;;3.65;;
35877;SDS011;21982;49.804;24.072;2022-08-21T07:27:13;6.68;;;3.20;;
35877;SDS011;21982;49.804;24.072;2022-08-21T07:29:42;7.32;;;3.83;;
35877;SDS011;21982;49.804;24.072;2022-08-21T07:32:08;5.65;;;3.17;;
35877;SDS011;21982;49.804;24.072;2022-08-21T07:34:37;4.72;;;2.88;;
35877;SDS011;21982;49.804;24.072;2022-08-21T07:37:03;5.57;;;2.67;;
35877;SDS011;21982;49.804;24.072;2022-08-21T07:39:34;7.65;;;3.25;;
35877;SDS011;21982;49.804;24.072;2022-08-21T07:42:00;7.25;;;3.33;;
35877;SDS011;21982;49.804;24.072;2022-08-21T07:44:31;5.30;;;4.00;;
35877;SDS011;21982;49.804;24.072;2022-08-21T07:47:03;7.95;;;3.10;;
35877;SDS011;21982;49.804;24.072;2022-08-21T07:49:29;9.43;;;3.83;;
35877;SDS011;21982;49.804;24.072;2022-08-21T07:51:56;7.30;;;3.13;;
35877;SDS011;21982;49.804;24.072;2022-08-21T07:54:22;8.38;;;3.20;;
35877;SDS011;21982;49.804;24.072;2022-08-21T07:56:47;5.65;;;3.13;;
35877;SDS011;21982;49.804;24.072;2022-08-21T07:59:12;7.20;;;3.38;;
35877;SDS011;21982;49.804;24.072;2022-08-21T08:01:38;6.85;;;3.25;;
35877;SDS011;21982;49.804;24.072;2022-08-21T08:04:03;9.25;;;3.25;;
35877;SDS011;21982;49.804;24.072;2022-08-21T08:06:29;6.88;;;3.03;;
35877;SDS011;21982;49.804;24.072;2022-08-21T08:08:55;7.25;;;3.20;;
35877;SDS011;21982;49.804;24.072;2022-08-21T08:11:27;8.50;;;2.95;;
35877;SDS011;21982;49.804;24.072;2022-08-21T08:13:56;10.82;;;3.90;;
35877;SDS011;21982;49.804;24.072;2022-08-21T08:16:23;6.22;;;3.50;;
35877;SDS011;21982;49.804;24.072;2022-08-21T08:18:58;9.27;;;4.00;;
35877;SDS011;21982;49.804;24.072;2022-08-21T08:21:30;7.03;;;3.20;;
35877;SDS011;21982;49.804;24.072;2022-08-21T08:23:57;9.10;;;4.18;;
35877;SDS011;21982;49.804;24.072;2022-08-21T08:26:22;9.57;;;3.42;;
35877;SDS011;21982;49.804;24.072;2022-08-21T08:28:48;12.18;;;3.90;;
35877;SDS011;21982;49.804;24.072;2022-08-21T08:31:14;10.48;;;3.60;;
35877;SDS011;21982;49.804;24.072;2022-08-21T08:33:41;10.13;;;3.95;;
35877;SDS011;21982;49.804;24.072;2022-08-21T08:36:12;10.43;;;4.50;;
35877;SDS011;21982;49.804;24.072;2022-08-21T08:38:40;18.02;;;3.97;;
35877;SDS011;21982;49.804;24.072;2022-08-21T08:43:48;11.02;;;4.30;;
35877;SDS011;21982;49.804;24.072;2022-08-21T08:49:13;14.43;;;4.78;;
35877;SDS011;21982;49.804;24.072;2022-08-21T08:52:01;7.15;;;3.08;;
35877;SDS011;21982;49.804;24.072;2022-08-21T08:54:57;9.23;;;3.65;;
35877;SDS011;21982;49.804;24.072;2022-08-21T08:57:32;8.27;;;3.08;;
35877;SDS011;21982;49.804;24.072;2022-08-21T08:59:59;9.98;;;3.97;;
35877;SDS011;21982;49.804;24.072;2022-08-21T09:02:27;9.10;;;3.05;;
35877;SDS011;21982;49.804;24.072;2022-08-21T09:04:53;5.55;;;3.03;;
35877;SDS011;21982;49.804;24.072;2022-08-21T09:09:55;8.63;;;2.55;;
35877;SDS011;21982;49.804;24.072;2022-08-21T09:26:50;4.30;;;2.35;;
35877;SDS011;21982;49.804;24.072;2022-08-21T09:29:42;6.57;;;2.72;;
35877;SDS011;21982;49.804;24.072;2022-08-21T09:32:25;5.05;;;2.78;;
35877;SDS011;21982;49.804;24.072;2022-08-21T09:35:07;4.82;;;2.67;;
35877;SDS011;21982;49.804;24.072;2022-08-21T09:43:03;6.32;;;2.28;;
35877;SDS011;21982;49.804;24.072;2022-08-21T09:45:47;4.72;;;2.45;;
35877;SDS011;21982;49.804;24.072;2022-08-21T09:48:29;6.13;;;2.92;;
35877;SDS011;21982;49.804;24.072;2022-08-21T09:51:05;6.25;;;2.80;;
35877;SDS011;21982;49.804;24.072;2022-08-21T09:53:37;5.00;;;2.67;;
35877;SDS011;21982;49.804;24.072;2022-08-21T09:56:56;3.97;;;2.22;;
35877;SDS011;21982;49.804;24.072;2022-08-21T09:59:44;5.78;;;2.70;;
35877;SDS011;21982;49.804;24.072;2022-08-21T10:03:16;7.05;;;2.83;;
35877;SDS011;21982;49.804;24.072;2022-08-21T10:05:49;5.93;;;2.45;;
35877;SDS011;21982;49.804;24.072;2022-08-21T10:08:04;4.75;;;2.55;;
35877;SDS011;21982;49.804;24.072;2022-08-21T10:10:31;7.70;;;2.17;;
35877;SDS011;21982;49.804;24.072;2022-08-21T10:23:40;5.80;;;2.85;;
35877;SDS011;21982;49.804;24.072;2022-08-21T10:32:28;7.07;;;2.50;;
35877;SDS011;21982;49.804;24.072;2022-08-21T10:34:59;4.55;;;2.15;;
35877;SDS011;21982;49.804;24.072;2022-08-21T10:43:17;6.43;;;2.83;;
35877;SDS011;21982;49.804;24.072;2022-08-21T10:46:07;7.22;;;2.58;;
35877;SDS011;21982;49.804;24.072;2022-08-21T10:48:55;5.68;;;2.85;;
35877;SDS011;21982;49.804;24.072;2022-08-21T10:51:46;6.63;;;2.20;;
35877;SDS011;21982;49.804;24.072;2022-08-21T10:57:06;8.50;;;2.45;;
35877;SDS011;21982;49.804;24.072;2022-08-21T10:59:48;7.55;;;3.80;;
35877;SDS011;21982;49.804;24.072;2022-08-21T11:05:15;6.00;;;2.70;;
35877;SDS011;21982;49.804;24.072;2022-08-21T11:07:54;9.63;;;3.67;;
35877;SDS011;21982;49.804;24.072;2022-08-21T11:10:32;8.55;;;3.22;;
35877;SDS011;21982;49.804;24.072;2022-08-21T11:13:11;8.55;;;3.25;;
35877;SDS011;21982;49.804;24.072;2022-08-21T11:15:46;7.30;;;3.10;;
35877;SDS011;21982;49.804;24.072;2022-08-21T11:18:33;9.13;;;3.00;;
35877;SDS011;21982;49.804;24.072;2022-08-21T11:21:06;6.80;;;2.40;;
35877;SDS011;21982;49.804;24.072;2022-08-21T11:23:53;6.95;;;2.95;;
35877;SDS011;21982;49.804;24.072;2022-08-21T11:26:37;6.72;;;2.90;;
35877;SDS011;21982;49.804;24.072;2022-08-21T11:29:25;7.47;;;3.38;;
35877;SDS011;21982;49.804;24.072;2022-08-21T11:32:21;5.75;;;2.65;;
35877;SDS011;21982;49.804;24.072;2022-08-21T11:38:13;4.25;;;2.47;;
35877;SDS011;21982;49.804;24.072;2022-08-21T11:43:35;8.13;;;3.55;;
35877;SDS011;21982;49.804;24.072;2022-08-21T11:46:13;7.43;;;2.47;;
35877;SDS011;21982;49.804;24.072;2022-08-21T11:49:03;5.18;;;2.42;;
35877;SDS011;21982;49.804;24.072;2022-08-21T11:51:42;6.40;;;2.33;;
35877;SDS011;21982;49.804;24.072;2022-08-21T11:54:37;5.28;;;2.47;;
35877;SDS011;21982;49.804;24.072;2022-08-21T11:59:53;5.22;;;2.35;;
35877;SDS011;21982;49.804;24.072;2022-08-21T12:02:34;5.60;;;2.60;;
35877;SDS011;21982;49.804;24.072;2022-08-21T12:05:07;4.22;;;2.20;;
35877;SDS011;21982;49.804;24.072;2022-08-21T12:07:59;8.05;;;2.70;;
35877;SDS011;21982;49.804;24.072;2022-08-21T12:10:32;5.10;;;2.33;;
35877;SDS011;21982;49.804;24.072;2022-08-21T12:13:20;4.57;;;2.05;;
35877;SDS011;21982;49.804;24.072;2022-08-21T12:16:11;6.60;;;2.53;;
35877;SDS011;21982;49.804;24.072;2022-08-21T12:19:08;6.18;;;2.10;;
35877;SDS011;21982;49.804;24.072;2022-08-21T12:24:45;4.50;;;2.47;;
35877;SDS011;21982;49.804;24.072;2022-08-21T12:29:58;4.57;;;2.25;;
35877;SDS011;21982;49.804;24.072;2022-08-21T12:38:15;4.38;;;2.30;;
35877;SDS011;21982;49.804;24.072;2022-08-21T12:40:59;6.50;;;2.30;;
35877;SDS011;21982;49.804;24.072;2022-08-21T12:43:40;5.72;;;2.22;;
35877;SDS011;21982;49.804;24.072;2022-08-21T12:46:19;4.60;;;2.13;;
35877;SDS011;21982;49.804;24.072;2022-08-21T12:49:53;4.68;;;1.92;;
35877;SDS011;21982;49.804;24.072;2022-08-21T12:52:16;3.17;;;2.00;;
35877;SDS011;21982;49.804;24.072;2022-08-21T12:55:02;6.30;;;1.98;;
35877;SDS011;21982;49.804;24.072;2022-08-21T12:57:29;5.35;;;2.17;;
35877;SDS011;21982;49.804;24.072;2022-08-21T12:59:56;7.25;;;2.88;;
35877;SDS011;21982;49.804;24.072;2022-08-21T13:02:35;3.33;;;1.80;;
35877;SDS011;21982;49.804;24.072;2022-08-21T13:05:05;5.78;;;2.22;;
35877;SDS011;21982;49.804;24.072;2022-08-21T13:07:38;5.88;;;1.88;;
35877;SDS011;21982;49.804;24.072;2022-08-21T13:12:59;3.95;;;2.00;;
35877;SDS011;21982;49.804;24.072;2022-08-21T13:15:29;4.13;;;1.85;;
35877;SDS011;21982;49.804;24.072;2022-08-21T13:17:57;4.10;;;2.35;;
35877;SDS011;21982;49.804;24.072;2022-08-21T13:20:29;3.97;;;2.05;;
35877;SDS011;21982;49.804;24.072;2022-08-21T13:23:00;5.88;;;2.30;;
35877;SDS011;21982;49.804;24.072;2022-08-21T13:25:40;3.00;;;2.08;;
35877;SDS011;21982;49.804;24.072;2022-08-21T13:28:12;6.38;;;2.22;;
35877;SDS011;21982;49.804;24.072;2022-08-21T13:30:41;6.28;;;2.08;;
35877;SDS011;21982;49.804;24.072;2022-08-21T13:33:15;4.22;;;2.25;;
35877;SDS011;21982;49.804;24.072;2022-08-21T13:38:26;4.10;;;2.03;;
35877;SDS011;21982;49.804;24.072;2022-08-21T13:40:56;5.82;;;2.25;;
35877;SDS011;21982;49.804;24.072;2022-08-21T13:43:28;5.60;;;2.10;;
35877;SDS011;21982;49.804;24.072;2022-08-21T13:45:58;12.77;;;2.15;;
35877;SDS011;21982;49.804;24.072;2022-08-21T13:48:30;4.18;;;1.90;;
35877;SDS011;21982;49.804;24.072;2022-08-21T13:51:01;2.95;;;2.08;;
35877;SDS011;21982;49.804;24.072;2022-08-21T13:53:29;4.18;;;1.73;;
35877;SDS011;21982;49.804;24.072;2022-08-21T13:55:59;4.60;;;2.50;;
35877;SDS011;21982;49.804;24.072;2022-08-21T13:58:41;3.28;;;1.92;;
35877;SDS011;21982;49.804;24.072;2022-08-21T14:01:22;4.93;;;1.80;;
35877;SDS011;21982;49.804;24.072;2022-08-21T14:03:53;5.75;;;2.70;;
35877;SDS011;21982;49.804;24.072;2022-08-21T14:06:32;4.22;;;1.92;;
35877;SDS011;21982;49.804;24.072;2022-08-21T14:09:00;6.75;;;2.47;;
35877;SDS011;21982;49.804;24.072;2022-08-21T14:11:33;9.10;;;2.63;;
35877;SDS011;21982;49.804;24.072;2022-08-21T14:14:00;4.60;;;1.92;;
35877;SDS011;21982;49.804;24.072;2022-08-21T14:16:40;3.63;;;1.95;;
35877;SDS011;21982;49.804;24.072;2022-08-21T14:19:15;3.97;;;1.92;;
35877;SDS011;21982;49.804;24.072;2022-08-21T14:21:59;7.38;;;2.42;;
35877;SDS011;21982;49.804;24.072;2022-08-21T14:24:26;8.27;;;2.08;;
35877;SDS011;21982;49.804;24.072;2022-08-21T14:27:03;3.60;;;2.10;;
35877;SDS011;21982;49.804;24.072;2022-08-21T14:29:38;3.30;;;1.67;;
35877;SDS011;21982;49.804;24.072;2022-08-21T14:32:15;5.18;;;2.33;;
35877;SDS011;21982;49.804;24.072;2022-08-21T14:34:45;8.45;;;4.40;;
35877;SDS011;21982;49.804;24.072;2022-08-21T14:37:14;3.95;;;2.15;;
35877;SDS011;21982;49.804;24.072;2022-08-21T14:39:39;6.75;;;2.67;;
35877;SDS011;21982;49.804;24.072;2022-08-21T14:42:05;6.53;;;2.53;;
35877;SDS011;21982;49.804;24.072;2022-08-21T14:44:30;3.72;;;1.85;;
35877;SDS011;21982;49.804;24.072;2022-08-21T14:46:57;10.55;;;2.15;;
35877;SDS011;21982;49.804;24.072;2022-08-21T14:49:29;6.00;;;2.25;;
35877;SDS011;21982;49.804;24.072;2022-08-21T14:51:57;8.10;;;2.40;;
35877;SDS011;21982;49.804;24.072;2022-08-21T14:54:26;2.95;;;1.60;;
35877;SDS011;21982;49.804;24.072;2022-08-21T14:56:53;6.57;;;2.70;;
35877;SDS011;21982;49.804;24.072;2022-08-21T14:59:20;5.95;;;1.88;;
35877;SDS011;21982;49.804;24.072;2022-08-21T15:01:50;3.72;;;2.25;;
35877;SDS011;21982;49.804;24.072;2022-08-21T15:04:22;5.68;;;1.88;;
35877;SDS011;21982;49.804;24.072;2022-08-21T15:06:49;7.78;;;2.33;;
35877;SDS011;21982;49.804;24.072;2022-08-21T15:09:15;4.63;;;1.85;;
35877;SDS011;21982;49.804;24.072;2022-08-21T15:11:41;5.88;;;2.10;;
35877;SDS011;21982;49.804;24.072;2022-08-21T15:14:10;5.25;;;1.83;;
35877;SDS011;21982;49.804;24.072;2022-08-21T15:16:46;5.95;;;2.03;;
35877;SDS011;21982;49.804;24.072;2022-08-21T15:19:18;9.55;;;2.70;;
35877;SDS011;21982;49.804;24.072;2022-08-21T15:21:44;4.90;;;1.63;;
35877;SDS011;21982;49.804;24.072;2022-08-21T15:24:10;7.78;;;2.03;;
35877;SDS011;21982;49.804;24.072;2022-08-21T15:26:36;7.85;;;2.47;;
35877;SDS011;21982;49.804;24.072;2022-08-21T15:29:02;5.07;;;2.20;;
35877;SDS011;21982;49.804;24.072;2022-08-21T15:31:30;3.80;;;1.63;;
35877;SDS011;21982;49.804;24.072;2022-08-21T15:33:55;8.35;;;2.55;;
35877;SDS011;21982;49.804;24.072;2022-08-21T15:36:21;5.32;;;1.65;;
35877;SDS011;21982;49.804;24.072;2022-08-21T15:38:47;4.78;;;2.08;;
35877;SDS011;21982;49.804;24.072;2022-08-21T15:41:12;3.95;;;2.05;;
35877;SDS011;21982;49.804;24.072;2022-08-21T15:43:44;7.15;;;2.53;;
35877;SDS011;21982;49.804;24.072;2022-08-21T15:46:13;8.02;;;2.65;;
35877;SDS011;21982;49.804;24.072;2022-08-21T15:48:41;3.05;;;1.83;;
35877;SDS011;21982;49.804;24.072;2022-08-21T15:51:07;4.18;;;2.22;;
35877;SDS011;21982;49.804;24.072;2022-08-21T15:53:35;6.32;;;1.88;;
35877;SDS011;21982;49.804;24.072;2022-08-21T15:56:03;7.72;;;2.10;;
35877;SDS011;21982;49.804;24.072;2022-08-21T15:58:31;5.22;;;2.13;;
35877;SDS011;21982;49.804;24.072;2022-08-21T16:01:00;3.58;;;1.83;;
35877;SDS011;21982;49.804;24.072;2022-08-21T16:03:28;3.83;;;1.75;;
35877;SDS011;21982;49.804;24.072;2022-08-21T16:05:57;5.88;;;2.42;;
35877;SDS011;21982;49.804;24.072;2022-08-21T16:08:26;9.57;;;2.30;;
35877;SDS011;21982;49.804;24.072;2022-08-21T16:10:52;4.75;;;2.10;;
35877;SDS011;21982;49.804;24.072;2022-08-21T16:13:25;7.32;;;2.50;;
35877;SDS011;21982;49.804;24.072;2022-08-21T16:15:54;5.10;;;2.03;;
35877;SDS011;21982;49.804;24.072;2022-08-21T16:18:20;4.63;;;2.00;;
35877;SDS011;21982;49.804;24.072;2022-08-21T16:20:47;5.95;;;2.33;;
35877;SDS011;21982;49.804;24.072;2022-08-21T16:23:16;6.63;;;2.28;;
35877;SDS011;21982;49.804;24.072;2022-08-21T16:25:41;3.60;;;2.05;;
35877;SDS011;21982;49.804;24.072;2022-08-21T16:28:16;4.18;;;2.33;;
35877;SDS011;21982;49.804;24.072;2022-08-21T16:30:48;4.82;;;2.25;;
35877;SDS011;21982;49.804;24.072;2022-08-21T16:33:26;5.00;;;2.50;;
35877;SDS011;21982;49.804;24.072;2022-08-21T16:35:57;5.40;;;2.35;;
35877;SDS011;21982;49.804;24.072;2022-08-21T16:38:24;5.97;;;2.50;;
35877;SDS011;21982;49.804;24.072;2022-08-21T16:40:50;8.50;;;2.45;;
35877;SDS011;21982;49.804;24.072;2022-08-21T16:43:21;6.53;;;2.20;;
35877;SDS011;21982;49.804;24.072;2022-08-21T16:45:55;5.15;;;2.35;;
35877;SDS011;21982;49.804;24.072;2022-08-21T16:48:34;6.38;;;2.70;;
35877;SDS011;21982;49.804;24.072;2022-08-21T16:51:03;5.43;;;2.67;;
35877;SDS011;21982;49.804;24.072;2022-08-21T16:53:29;5.00;;;2.22;;
35877;SDS011;21982;49.804;24.072;2022-08-21T16:55:54;4.30;;;2.30;;
35877;SDS011;21982;49.804;24.072;2022-08-21T16:58:31;5.72;;;2.83;;
35877;SDS011;21982;49.804;24.072;2022-08-21T17:01:05;4.95;;;2.80;;
35877;SDS011;21982;49.804;24.072;2022-08-21T17:03:38;4.97;;;2.90;;
35877;SDS011;21982;49.804;24.072;2022-08-21T17:06:10;6.88;;;3.38;;
35877;SDS011;21982;49.804;24.072;2022-08-21T17:08:36;5.57;;;2.72;;
35877;SDS011;21982;49.804;24.072;2022-08-21T17:11:02;7.72;;;3.50;;
35877;SDS011;21982;49.804;24.072;2022-08-21T17:13:34;7.88;;;3.22;;
35877;SDS011;21982;49.804;24.072;2022-08-21T17:15:59;6.43;;;3.33;;
35877;SDS011;21982;49.804;24.072;2022-08-21T17:18:25;7.57;;;2.95;;
35877;SDS011;21982;49.804;24.072;2022-08-21T17:20:54;7.35;;;3.20;;
35877;SDS011;21982;49.804;24.072;2022-08-21T17:23:19;9.13;;;3.03;;
35877;SDS011;21982;49.804;24.072;2022-08-21T17:25:46;6.75;;;3.15;;
35877;SDS011;21982;49.804;24.072;2022-08-21T17:28:16;8.00;;;3.33;;
35877;SDS011;21982;49.804;24.072;2022-08-21T17:30:49;8.20;;;3.80;;
35877;SDS011;21982;49.804;24.072;2022-08-21T17:33:17;6.00;;;3.30;;
35877;SDS011;21982;49.804;24.072;2022-08-21T17:35:44;6.75;;;3.78;;
35877;SDS011;21982;49.804;24.072;2022-08-21T17:38:10;6.82;;;3.05;;
35877;SDS011;21982;49.804;24.072;2022-08-21T17:40:37;8.05;;;3.47;;
35877;SDS011;21982;49.804;24.072;2022-08-21T17:46:07;6.63;;;3.25;;
35877;SDS011;21982;49.804;24.072;2022-08-21T17:48:40;7.00;;;3.70;;
35877;SDS011;21982;49.804;24.072;2022-08-21T17:51:06;8.35;;;3.67;;
35877;SDS011;21982;49.804;24.072;2022-08-21T17:53:35;7.28;;;3.55;;
35877;SDS011;21982;49.804;24.072;2022-08-21T17:56:00;10.30;;;4.22;;
35877;SDS011;21982;49.804;24.072;2022-08-21T17:58:32;7.78;;;4.35;;
35877;SDS011;21982;49.804;24.072;2022-08-21T18:00:59;7.05;;;3.97;;
35877;SDS011;21982;49.804;24.072;2022-08-21T18:03:29;6.00;;;4.10;;
35877;SDS011;21982;49.804;24.072;2022-08-21T18:06:05;8.98;;;3.72;;
35877;SDS011;21982;49.804;24.072;2022-08-21T18:08:31;6.22;;;3.42;;
35877;SDS011;21982;49.804;24.072;2022-08-21T18:10:57;6.50;;;2.97;;
35877;SDS011;21982;49.804;24.072;2022-08-21T18:13:30;5.75;;;3.40;;
35877;SDS011;21982;49.804;24.072;2022-08-21T18:16:17;8.27;;;3.42;;
35877;SDS011;21982;49.804;24.072;2022-08-21T18:18:44;6.18;;;3.80;;
35877;SDS011;21982;49.804;24.072;2022-08-21T18:21:13;8.20;;;3.80;;
35877;SDS011;21982;49.804;24.072;2022-08-21T18:23:42;7.85;;;4.35;;
35877;SDS011;21982;49.804;24.072;2022-08-21T18:26:15;8.48;;;4.10;;
35877;SDS011;21982;49.804;24.072;2022-08-21T18:28:50;8.43;;;3.88;;
35877;SDS011;21982;49.804;24.072;2022-08-21T18:31:19;6.55;;;4.03;;
35877;SDS011;21982;49.804;24.072;2022-08-21T18:33:45;10.20;;;5.55;;
35877;SDS011;21982;49.804;24.072;2022-08-21T18:36:12;10.07;;;4.50;;
35877;SDS011;21982;49.804;24.072;2022-08-21T18:38:41;6.05;;;3.97;;
35877;SDS011;21982;49.804;24.072;2022-08-21T18:41:07;7.28;;;3.92;;
35877;SDS011;21982;49.804;24.072;2022-08-21T18:43:36;9.45;;;3.95;;
35877;SDS011;21982;49.804;24.072;2022-08-21T18:46:05;7.05;;;3.88;;
35877;SDS011;21982;49.804;24.072;2022-08-21T18:48:37;8.85;;;3.60;;
35877;SDS011;21982;49.804;24.072;2022-08-21T18:51:04;9.13;;;4.13;;
35877;SDS011;21982;49.804;24.072;2022-08-21T18:53:33;9.25;;;5.20;;
35877;SDS011;21982;49.804;24.072;2022-08-21T18:55:58;8.95;;;4.18;;